createdAt,value
2022-09-16T00:00:51.545Z,99273.25
2022-09-16T00:03:19.082Z,99268.13
2022-09-16T00:05:51.033Z,99270.81
2022-09-16T00:08:21.805Z,99271.63
2022-09-16T00:10:49.118Z,99266.94
2022-09-16T00:13:17.030Z,99267.56
2022-09-16T00:15:47.690Z,99268.59
2022-09-16T00:18:14.925Z,99270.44
2022-09-16T00:20:52.072Z,99271.72
2022-09-16T00:23:19.579Z,99277.09
2022-09-16T00:25:54.566Z,99276.53
2022-09-16T00:28:23.006Z,99273.84
2022-09-16T00:30:50.376Z,99270.53
2022-09-16T00:33:19.021Z,99272.66
2022-09-16T00:35:47.159Z,99261.91
2022-09-16T00:38:14.213Z,99264.84
2022-09-16T00:40:49.326Z,99267.16
2022-09-16T00:43:19.063Z,99270.88
2022-09-16T00:45:54.980Z,99277.31
2022-09-16T00:48:25.978Z,99284.78
2022-09-16T00:51:00.142Z,99276.59
2022-09-16T00:53:34.343Z,99275.53
2022-09-16T00:56:05.852Z,99280.34
2022-09-16T00:58:50.055Z,99279.38
2022-09-16T01:01:17.078Z,99282.06
2022-09-16T01:03:55.420Z,99281.09
2022-09-16T01:06:24.739Z,99279.72
2022-09-16T01:08:52.087Z,99282.84
2022-09-16T01:11:19.021Z,99285.75
2022-09-16T01:13:47.286Z,99289.72
2022-09-16T01:16:41.300Z,99287.13
2022-09-16T01:19:52.952Z,99291.88
2022-09-16T01:22:46.280Z,99274.63
2022-09-16T01:25:34.612Z,99273.81
2022-09-16T01:28:46.191Z,99278.22
2022-09-16T01:31:34.648Z,99269.34
2022-09-16T01:34:42.268Z,99269.22
2022-09-16T01:37:24.436Z,99269.44
2022-09-16T01:40:08.495Z,99271.97
2022-09-16T01:42:47.448Z,99279.44
2022-09-16T01:45:35.668Z,99274.50
2022-09-16T01:48:33.374Z,99277.66
2022-09-16T01:51:19.021Z,99274.00
2022-09-16T01:54:15.271Z,99280.03
2022-09-16T01:57:03.048Z,99270.78
2022-09-16T01:59:48.826Z,99265.66
2022-09-16T02:02:50.060Z,99265.03
2022-09-16T02:05:26.668Z,99259.91
2022-09-16T02:08:09.321Z,99251.50
2022-09-16T02:10:47.419Z,99228.66
2022-09-16T02:13:25.610Z,99201.03
2022-09-16T02:15:57.313Z,99180.38
2022-09-16T02:18:31.272Z,99199.38
2022-09-16T02:21:00.580Z,99218.16
2022-09-16T02:23:35.775Z,99234.00
2022-09-16T02:26:09.386Z,99248.22
2022-09-16T02:28:41.295Z,99261.41
2022-09-16T02:31:10.135Z,99277.28
2022-09-16T02:33:56.034Z,99278.09
2022-09-16T02:36:25.748Z,99275.19
2022-09-16T02:39:01.034Z,99278.44
2022-09-16T02:41:28.049Z,99282.56
2022-09-16T02:43:55.102Z,99283.19
2022-09-16T02:46:21.915Z,99274.09
2022-09-16T02:49:05.621Z,99274.66
2022-09-16T02:52:38.118Z,99287.25
2022-09-16T02:55:27.339Z,99280.41
2022-09-16T02:57:54.340Z,99275.41
2022-09-16T03:00:22.269Z,99278.69
2022-09-16T03:02:49.535Z,99276.59
2022-09-16T03:05:16.539Z,99273.94
2022-09-16T03:07:43.572Z,99274.97
2022-09-16T03:10:13.180Z,99281.75
2022-09-16T03:13:01.671Z,99282.78
2022-09-16T03:15:58.180Z,99285.22
2022-09-16T03:18:56.196Z,99280.69
2022-09-16T03:22:10.439Z,99278.84
2022-09-16T03:25:07.090Z,99273.03
2022-09-16T03:28:09.808Z,99269.28
2022-09-16T03:30:52.722Z,99260.00
2022-09-16T03:33:37.393Z,99252.75
2022-09-16T03:36:07.513Z,99250.06
2022-09-16T03:38:36.829Z,99254.63
2022-09-16T03:41:06.202Z,99255.44
2022-09-16T03:43:33.291Z,99259.75
2022-09-16T03:46:00.446Z,99258.72
2022-09-16T03:48:27.730Z,99262.44
2022-09-16T03:50:54.678Z,99261.97
2022-09-16T03:53:21.594Z,99255.78
2022-09-16T03:55:51.606Z,99266.19
2022-09-16T03:58:18.567Z,99261.63
2022-09-16T04:00:50.942Z,99253.78
2022-09-16T04:03:18.099Z,99249.25
2022-09-16T04:05:45.071Z,99249.16
2022-09-16T04:08:12.472Z,99254.53
2022-09-16T04:10:39.411Z,99255.13
2022-09-16T04:13:06.313Z,99253.69
2022-09-16T04:15:38.541Z,99253.94
2022-09-16T04:18:05.539Z,99256.59
2022-09-16T04:20:33.849Z,99254.97
2022-09-16T04:23:00.737Z,99253.34
2022-09-16T04:25:27.700Z,99250.06
2022-09-16T04:27:54.703Z,99253.19
2022-09-16T04:30:21.660Z,99247.84
2022-09-16T04:32:53.241Z,99243.53
2022-09-16T04:35:20.211Z,99244.56
2022-09-16T04:37:47.377Z,99247.25
2022-09-16T04:40:14.386Z,99239.44
2022-09-16T04:42:41.294Z,99248.31
2022-09-16T04:45:08.891Z,99246.66
2022-09-16T04:47:35.809Z,99249.34
2022-09-16T04:50:02.732Z,99251.19
2022-09-16T04:52:31.050Z,99250.38
2022-09-16T04:54:58.531Z,99247.69
2022-09-16T04:57:25.520Z,99254.34
2022-09-16T04:59:52.481Z,99247.34
2022-09-16T05:02:19.439Z,99248.16
2022-09-16T05:04:46.380Z,99243.03
2022-09-16T05:07:13.324Z,99244.88
2022-09-16T05:09:41.146Z,99242.41
2022-09-16T05:12:08.795Z,99241.81
2022-09-16T05:14:35.730Z,99242.88
2022-09-16T05:17:02.652Z,99245.78
2022-09-16T05:19:29.595Z,99244.16
2022-09-16T05:21:56.696Z,99240.63
2022-09-16T05:24:23.593Z,99230.13
2022-09-16T05:26:50.512Z,99242.97
2022-09-16T05:29:17.683Z,99243.78
2022-09-16T05:31:48.713Z,99247.72
2022-09-16T05:34:19.832Z,99249.34
2022-09-16T05:36:48.787Z,99256.38
2022-09-16T05:39:25.851Z,99254.69
2022-09-16T05:42:00.290Z,99254.69
2022-09-16T05:44:28.911Z,99253.69
2022-09-16T05:46:56.623Z,99254.50
2022-09-16T05:49:24.088Z,99253.44
2022-09-16T05:51:51.977Z,99249.97
2022-09-16T05:54:19.974Z,99258.00
2022-09-16T05:56:47.677Z,99253.22
2022-09-16T05:59:16.755Z,99253.84
2022-09-16T06:01:45.104Z,99258.16
2022-09-16T06:04:14.593Z,99266.78
2022-09-16T06:06:44.894Z,99262.84
2022-09-16T06:09:24.718Z,99260.97
2022-09-16T06:11:59.384Z,99264.00
2022-09-16T06:14:28.536Z,99261.09
2022-09-16T06:16:55.885Z,99263.56
2022-09-16T06:19:22.988Z,99267.88
2022-09-16T06:21:50.299Z,99263.34
2022-09-16T06:24:19.132Z,99265.34
2022-09-16T06:26:47.963Z,99267.56
2022-09-16T06:29:16.738Z,99267.09
2022-09-16T06:31:43.750Z,99261.53
2022-09-16T06:34:20.805Z,99269.34
2022-09-16T06:36:47.989Z,99260.63
2022-09-16T06:39:16.869Z,99260.41
2022-09-16T06:41:44.113Z,99259.34
2022-09-16T06:44:11.084Z,99257.00
2022-09-16T06:46:38.782Z,99264.84
2022-09-16T06:49:06.724Z,99271.63
2022-09-16T06:51:35.790Z,99265.44
2022-09-16T06:54:05.846Z,99263.56
2022-09-16T06:56:35.848Z,99255.06
2022-09-16T06:59:03.537Z,99255.06
2022-09-16T07:01:31.848Z,99252.75
2022-09-16T07:04:03.563Z,99249.25
2022-09-16T07:07:07.582Z,99254.59
2022-09-16T07:09:18.587Z,99257.06
2022-09-16T07:11:45.478Z,99259.50
2022-09-16T07:14:12.459Z,99254.13
2022-09-16T07:16:39.489Z,99257.44
2022-09-16T07:19:06.726Z,99256.13
2022-09-16T07:21:33.708Z,99255.91
2022-09-16T07:24:02.873Z,99259.78
2022-09-16T07:26:34.722Z,99272.72
2022-09-16T07:29:04.508Z,99270.88
2022-09-16T07:31:34.976Z,99272.28
2022-09-16T07:34:05.047Z,99267.50
2022-09-16T07:36:40.973Z,99267.50
2022-09-16T07:39:09.397Z,99261.06
2022-09-16T07:41:39.226Z,99266.22
2022-09-16T07:44:08.342Z,99274.03
2022-09-16T07:46:36.687Z,99275.69
2022-09-16T07:49:07.546Z,99279.41
2022-09-16T07:51:35.519Z,99270.31
2022-09-16T07:54:08.879Z,99280.81
2022-09-16T07:56:38.911Z,99277.06
2022-09-16T07:59:13.090Z,99287.00
2022-09-16T08:01:43.779Z,99287.81
2022-09-16T08:04:12.278Z,99281.19
2022-09-16T08:06:40.417Z,99284.44
2022-09-16T08:09:21.255Z,99290.41
2022-09-16T08:11:54.782Z,99278.03
2022-09-16T08:14:21.756Z,99278.59
2022-09-16T08:16:51.381Z,99281.91
2022-09-16T08:19:20.511Z,99288.44
2022-09-16T08:21:47.651Z,99290.09
2022-09-16T08:24:14.702Z,99289.84
2022-09-16T08:26:41.753Z,99295.94
2022-09-16T08:29:10.193Z,99297.81
2022-09-16T08:31:38.736Z,99299.31
2022-09-16T08:34:06.408Z,99294.41
2022-09-16T08:36:33.948Z,99290.91
2022-09-16T08:39:01.574Z,99297.19
2022-09-16T08:42:22.012Z,99304.22
2022-09-16T08:44:58.565Z,99307.50
2022-09-16T08:47:52.345Z,99303.03
2022-09-16T08:50:29.282Z,99311.69
2022-09-16T08:52:59.786Z,99304.22
2022-09-16T08:55:39.504Z,99302.94
2022-09-16T08:58:29.729Z,99303.88
2022-09-16T09:01:40.127Z,99302.34
2022-09-16T09:04:07.509Z,99304.09
2022-09-16T09:06:46.342Z,99310.94
2022-09-16T09:09:41.776Z,99311.59
2022-09-16T09:12:52.407Z,99309.47
2022-09-16T09:15:41.981Z,99304.72
2022-09-16T09:18:37.029Z,99308.00
2022-09-16T09:21:35.255Z,99309.53
2022-09-16T09:24:25.084Z,99313.03
2022-09-16T09:27:14.335Z,99308.97
2022-09-16T09:30:06.064Z,99307.53
2022-09-16T09:33:22.145Z,99303.22
2022-09-16T09:36:27.274Z,99305.31
2022-09-16T09:39:40.863Z,99302.78
2022-09-16T09:42:25.920Z,99298.66
2022-09-16T09:45:24.167Z,99303.13
2022-09-16T09:48:23.265Z,99307.19
2022-09-16T09:50:52.658Z,99305.44
2022-09-16T09:53:39.719Z,99304.19
2022-09-16T09:56:27.785Z,99300.19
2022-09-16T09:59:22.214Z,99306.50
2022-09-16T10:01:58.423Z,99295.97
2022-09-16T10:04:25.771Z,99289.44
2022-09-16T10:06:55.509Z,99288.00
2022-09-16T10:09:23.243Z,99284.69
2022-09-16T10:11:55.524Z,99286.19
2022-09-16T10:14:35.507Z,99286.38
2022-09-16T10:17:14.292Z,99289.19
2022-09-16T10:19:59.962Z,99290.13
2022-09-16T10:22:30.745Z,99293.13
2022-09-16T10:25:02.633Z,99295.47
2022-09-16T10:27:36.111Z,99292.06
2022-09-16T10:30:04.376Z,99299.63
2022-09-16T10:32:34.731Z,99297.78
2022-09-16T10:35:08.141Z,99301.50
2022-09-16T10:37:36.777Z,99293.38
2022-09-16T10:40:06.795Z,99289.84
2022-09-16T10:42:34.559Z,99291.25
2022-09-16T10:45:28.950Z,99290.75
2022-09-16T10:48:07.063Z,99287.47
2022-09-16T10:50:34.680Z,99299.06
2022-09-16T10:53:01.651Z,99285.72
2022-09-16T10:55:35.223Z,99290.44
2022-09-16T10:58:18.355Z,99290.50
2022-09-16T11:01:40.502Z,99295.81
2022-09-16T11:04:48.756Z,99284.47
2022-09-16T11:07:57.099Z,99286.13
2022-09-16T11:11:14.072Z,99293.03
2022-09-16T11:14:11.813Z,99289.56
2022-09-16T11:16:49.338Z,99291.91
2022-09-16T11:19:37.300Z,99287.56
2022-09-16T11:23:04.083Z,99294.63
2022-09-16T11:25:44.226Z,99296.38
2022-09-16T11:28:43.551Z,99291.44
2022-09-16T11:31:33.881Z,99286.28
2022-09-16T11:34:13.007Z,99284.34
2022-09-16T11:36:54.879Z,99291.00
2022-09-16T11:39:51.232Z,99289.88
2022-09-16T11:42:56.731Z,99277.88
2022-09-16T11:45:48.379Z,99287.00
2022-09-16T11:48:56.483Z,99286.69
2022-09-16T11:51:50.585Z,99286.88
2022-09-16T11:54:58.239Z,99284.38
2022-09-16T11:57:34.696Z,99278.66
2022-09-16T12:00:12.391Z,99279.72
2022-09-16T12:03:04.486Z,99273.88
2022-09-16T12:05:51.733Z,99281.03
2022-09-16T12:08:50.435Z,99270.13
2022-09-16T12:11:52.011Z,99270.28
2022-09-16T12:14:54.501Z,99261.88
2022-09-16T12:17:29.814Z,99262.91
2022-09-16T12:20:20.472Z,99259.22
2022-09-16T12:23:03.844Z,99260.41
2022-09-16T12:26:19.982Z,99258.81
2022-09-16T12:29:33.313Z,99257.03
2022-09-16T12:32:37.651Z,99249.00
2022-09-16T12:35:15.249Z,99249.09
2022-09-16T12:37:51.675Z,99246.66
2022-09-16T12:40:27.587Z,99256.66
2022-09-16T12:43:29.097Z,99244.97
2022-09-16T12:46:36.655Z,99252.50
2022-09-16T12:49:29.854Z,99262.69
2022-09-16T12:52:45.819Z,99272.31
2022-09-16T12:55:54.341Z,99275.44
2022-09-16T12:58:56.933Z,99281.41
2022-09-16T13:02:00.847Z,99261.00
2022-09-16T13:04:36.489Z,99253.81
2022-09-16T13:07:04.876Z,99256.63
2022-09-16T13:09:37.159Z,99251.88
2022-09-16T13:12:36.838Z,99249.66
2022-09-16T13:15:06.241Z,99251.31
2022-09-16T13:17:36.808Z,99243.84
2022-09-16T13:20:25.964Z,99248.25
2022-09-16T13:22:55.814Z,99235.59
2022-09-16T13:25:35.742Z,99242.13
2022-09-16T13:28:25.234Z,99235.47
2022-09-16T13:30:52.816Z,99235.03
2022-09-16T13:33:27.969Z,99240.19
2022-09-16T13:36:28.395Z,99235.09
2022-09-16T13:39:05.672Z,99238.41
2022-09-16T13:41:43.896Z,99232.03
2022-09-16T13:44:49.439Z,99232.25
2022-09-16T13:47:34.096Z,99227.81
2022-09-16T13:50:14.254Z,99217.09
2022-09-16T13:52:42.605Z,99217.38
2022-09-16T13:55:25.732Z,99212.81
2022-09-16T13:58:06.859Z,99220.06
2022-09-16T14:01:16.074Z,99212.75
2022-09-16T14:04:30.124Z,99222.72
2022-09-16T14:07:26.970Z,99219.34
2022-09-16T14:10:22.544Z,99214.44
2022-09-16T14:13:11.315Z,99222.75
2022-09-16T14:15:47.828Z,99208.88
2022-09-16T14:18:19.957Z,99223.13
2022-09-16T14:21:17.881Z,99221.72
2022-09-16T14:23:44.968Z,99230.34
2022-09-16T14:26:18.955Z,99227.41
2022-09-16T14:28:46.357Z,99223.63
2022-09-16T14:31:19.784Z,99229.06
2022-09-16T14:33:56.826Z,99232.09
2022-09-16T14:36:30.348Z,99228.06
2022-09-16T14:39:06.952Z,99228.63
2022-09-16T14:41:48.688Z,99231.13
2022-09-16T14:44:18.699Z,99229.69
2022-09-16T14:47:04.625Z,99226.69
2022-09-16T14:49:38.174Z,99232.53
2022-09-16T14:52:15.956Z,99227.91
2022-09-16T14:54:46.834Z,99220.03
2022-09-16T14:57:23.038Z,99233.13
2022-09-16T14:59:54.241Z,99227.63
2022-09-16T15:02:52.998Z,99223.75
2022-09-16T15:05:41.147Z,99237.94
2022-09-16T15:08:24.824Z,99242.16
2022-09-16T15:10:56.831Z,99237.75
2022-09-16T15:13:34.801Z,99237.69
2022-09-16T15:16:15.596Z,99234.09
2022-09-16T15:19:02.418Z,99240.75
2022-09-16T15:21:34.419Z,99243.13
2022-09-16T15:24:15.756Z,99231.69
2022-09-16T15:26:46.469Z,99247.69
2022-09-16T15:29:35.385Z,99246.25
2022-09-16T15:32:19.593Z,99252.28
2022-09-16T15:34:46.981Z,99245.94
2022-09-16T15:37:31.981Z,99244.13
2022-09-16T15:40:23.837Z,99246.91
2022-09-16T15:43:15.995Z,99251.06
2022-09-16T15:45:45.912Z,99253.34
2022-09-16T15:48:19.004Z,99254.06
2022-09-16T15:50:54.480Z,99254.22
2022-09-16T15:53:31.012Z,99251.91
2022-09-16T15:56:09.172Z,99253.91
2022-09-16T15:58:43.233Z,99261.88
2022-09-16T16:01:35.466Z,99265.88
2022-09-16T16:04:06.466Z,99271.50
2022-09-16T16:07:02.482Z,99284.28
2022-09-16T16:09:29.311Z,99295.28
2022-09-16T16:12:08.473Z,99293.22
2022-09-16T16:14:36.490Z,99307.50
2022-09-16T16:17:15.117Z,99282.75
2022-09-16T16:19:50.493Z,99276.31
2022-09-16T16:22:18.646Z,99271.78
2022-09-16T16:24:47.724Z,99271.56
2022-09-16T16:27:17.469Z,99276.25
2022-09-16T16:29:46.236Z,99275.88
2022-09-16T16:32:16.465Z,99276.84
2022-09-16T16:34:47.776Z,99274.28
2022-09-16T16:37:34.145Z,99270.97
2022-09-16T16:40:08.634Z,99280.16
2022-09-16T16:42:44.026Z,99274.81
2022-09-16T16:45:16.891Z,99282.53
2022-09-16T16:47:46.270Z,99277.59
2022-09-16T16:50:13.590Z,99292.56
2022-09-16T16:52:41.072Z,99289.50
2022-09-16T16:55:09.422Z,99293.94
2022-09-16T16:57:36.664Z,99281.41
2022-09-16T17:00:05.179Z,99296.00
2022-09-16T17:02:32.340Z,99296.69
2022-09-16T17:04:59.527Z,99290.16
2022-09-16T17:07:27.596Z,99294.94
2022-09-16T17:09:57.003Z,99305.69
2022-09-16T17:12:24.148Z,99306.72
2022-09-16T17:14:51.191Z,99304.25
2022-09-16T17:17:18.115Z,99301.81
2022-09-16T17:19:45.057Z,99303.09
2022-09-16T17:22:12.154Z,99313.00
2022-09-16T17:24:39.148Z,99315.31
2022-09-16T17:27:06.053Z,99321.13
2022-09-16T17:29:34.425Z,99339.56
2022-09-16T17:32:02.933Z,99326.00
2022-09-16T17:34:30.231Z,99330.22
2022-09-16T17:36:58.131Z,99326.56
2022-09-16T17:39:25.170Z,99329.91
2022-09-16T17:41:52.140Z,99336.56
2022-09-16T17:44:19.652Z,99334.56
2022-09-16T17:46:47.391Z,99336.84
2022-09-16T17:49:21.718Z,99346.66
2022-09-16T17:51:50.282Z,99347.06
2022-09-16T17:54:17.731Z,99350.81
2022-09-16T17:56:45.550Z,99343.81
2022-09-16T17:59:15.463Z,99340.53
2022-09-16T18:01:42.446Z,99333.16
2022-09-16T18:04:09.823Z,99330.09
2022-09-16T18:06:46.351Z,99336.97
2022-09-16T18:09:16.177Z,99335.31
2022-09-16T18:11:43.155Z,99342.16
2022-09-16T18:14:12.878Z,99338.25
2022-09-16T18:16:40.697Z,99340.34
2022-09-16T18:19:08.497Z,99346.16
2022-09-16T18:21:37.987Z,99342.03
2022-09-16T18:24:10.900Z,99339.59
2022-09-16T18:26:38.135Z,99350.78
2022-09-16T18:29:09.967Z,99368.91
2022-09-16T18:31:41.463Z,99369.97
2022-09-16T18:34:09.882Z,99375.56
2022-09-16T18:36:39.843Z,99372.66
2022-09-16T18:39:12.779Z,99376.81
2022-09-16T18:41:41.993Z,99378.88
2022-09-16T18:44:19.800Z,99380.59
2022-09-16T18:46:47.478Z,99388.84
2022-09-16T18:49:16.466Z,99384.75
2022-09-16T18:51:52.428Z,99381.91
2022-09-16T18:54:28.647Z,99378.84
2022-09-16T18:57:01.066Z,99380.69
2022-09-16T18:59:32.451Z,99375.78
2022-09-16T19:02:03.308Z,99376.03
2022-09-16T19:04:36.697Z,99373.75
2022-09-16T19:07:07.703Z,99377.94
2022-09-16T19:09:37.414Z,99375.47
2022-09-16T19:12:05.218Z,99366.44
2022-09-16T19:14:32.717Z,99379.22
2022-09-16T19:16:59.688Z,99383.41
2022-09-16T19:19:26.706Z,99383.41
2022-09-16T19:21:53.672Z,99380.56
2022-09-16T19:24:24.061Z,99377.47
2022-09-16T19:26:53.729Z,99382.22
2022-09-16T19:29:21.897Z,99386.31
2022-09-16T19:31:54.649Z,99392.94
2022-09-16T19:34:22.201Z,99397.91
2022-09-16T19:36:49.691Z,99394.63
2022-09-16T19:39:17.632Z,99402.06
2022-09-16T19:41:45.214Z,99400.63
2022-09-16T19:44:15.975Z,99399.19
2022-09-16T19:46:46.661Z,99396.97
2022-09-16T19:49:20.153Z,99403.78
2022-09-16T19:51:48.356Z,99400.50
2022-09-16T19:54:16.641Z,99401.75
2022-09-16T19:56:48.203Z,99403.41
2022-09-16T19:59:17.751Z,99402.22
2022-09-16T20:01:44.787Z,99411.69
2022-09-16T20:04:11.889Z,99421.22
2022-09-16T20:06:41.637Z,99421.25
2022-09-16T20:09:12.570Z,99422.47
2022-09-16T20:11:45.417Z,99419.00
2022-09-16T20:14:18.714Z,99414.06
2022-09-16T20:16:46.527Z,99419.00
2022-09-16T20:19:16.626Z,99421.28
2022-09-16T20:21:44.093Z,99424.16
2022-09-16T20:24:18.362Z,99428.50
2022-09-16T20:26:47.198Z,99422.53
2022-09-16T20:29:14.396Z,99422.97
2022-09-16T20:31:41.420Z,99421.75
2022-09-16T20:34:10.617Z,99426.88
2022-09-16T20:36:39.162Z,99419.31
2022-09-16T20:39:08.817Z,99423.41
2022-09-16T20:41:38.268Z,99423.84
2022-09-16T20:44:06.229Z,99429.63
2022-09-16T20:46:36.370Z,99435.59
2022-09-16T20:49:06.431Z,99439.47
2022-09-16T20:51:34.683Z,99438.28
2022-09-16T20:54:07.839Z,99441.34
2022-09-16T20:56:39.727Z,99435.81
2022-09-16T20:59:16.107Z,99430.88
2022-09-16T21:01:44.020Z,99439.09
2022-09-16T21:04:15.866Z,99434.16
2022-09-16T21:06:43.175Z,99438.69
2022-09-16T21:09:13.908Z,99432.13
2022-09-16T21:11:43.573Z,99436.66
2022-09-16T21:14:12.885Z,99439.94
2022-09-16T21:16:40.884Z,99436.66
2022-09-16T21:19:10.546Z,99440.75
2022-09-16T21:21:40.838Z,99450.22
2022-09-16T21:24:09.643Z,99458.25
2022-09-16T21:26:38.772Z,99458.44
2022-09-16T21:29:10.917Z,99464.41
2022-09-16T21:31:40.805Z,99476.94
2022-09-16T21:34:15.856Z,99474.06
2022-09-16T21:36:44.482Z,99471.16
2022-09-16T21:39:14.673Z,99472.41
2022-09-16T21:41:44.982Z,99473.63
2022-09-16T21:44:13.250Z,99475.69
2022-09-16T21:46:46.143Z,99483.28
2022-09-16T21:49:22.311Z,99481.84
2022-09-16T21:51:50.692Z,99477.75
2022-09-16T21:54:20.200Z,99479.78
2022-09-16T21:56:49.093Z,99483.47
2022-09-16T21:59:17.194Z,99485.53
2022-09-16T22:01:44.190Z,99478.72
2022-09-16T22:04:18.196Z,99485.50
2022-09-16T22:06:45.677Z,99480.19
2022-09-16T22:09:12.761Z,99476.03
2022-09-16T22:11:41.819Z,99474.63
2022-09-16T22:14:08.803Z,99466.38
2022-09-16T22:16:37.733Z,99480.75
2022-09-16T22:19:15.676Z,99482.38
2022-09-16T22:21:46.019Z,99482.59
2022-09-16T22:24:16.060Z,99489.78
2022-09-16T22:26:43.509Z,99489.97
2022-09-16T22:29:12.352Z,99486.69
2022-09-16T22:31:41.794Z,99493.03
2022-09-16T22:34:09.668Z,99491.41
2022-09-16T22:36:38.221Z,99488.94
2022-09-16T22:39:15.303Z,99492.97
2022-09-16T22:41:43.099Z,99490.16
2022-09-16T22:44:10.187Z,99488.31
2022-09-16T22:46:46.563Z,99490.31
2022-09-16T22:49:15.395Z,99482.31
2022-09-16T22:51:43.145Z,99485.84
2022-09-16T22:54:12.749Z,99478.81
2022-09-16T22:56:39.938Z,99484.84
2022-09-16T22:59:08.225Z,99485.66
2022-09-16T23:01:39.739Z,99482.16
2022-09-16T23:04:08.899Z,99485.44
2022-09-16T23:06:38.091Z,99478.06
2022-09-16T23:09:07.002Z,99481.53
2022-09-16T23:11:35.974Z,99484.84
2022-09-16T23:14:06.235Z,99487.31
2022-09-16T23:16:37.108Z,99485.47
2022-09-16T23:19:06.579Z,99483.00
2022-09-16T23:21:33.623Z,99483.63
2022-09-16T23:24:03.224Z,99479.09
2022-09-16T23:26:36.956Z,99474.78
2022-09-16T23:29:08.292Z,99478.28
2022-09-16T23:31:41.833Z,99476.63
2022-09-16T23:34:19.514Z,99485.03
2022-09-16T23:36:47.195Z,99476.19
2022-09-16T23:39:15.991Z,99481.75
2022-09-16T23:41:43.487Z,99487.50
2022-09-16T23:44:13.709Z,99493.19
2022-09-16T23:46:40.853Z,99485.59
2022-09-16T23:49:09.720Z,99490.28
2022-09-16T23:51:37.567Z,99486.41
2022-09-16T23:54:04.789Z,99478.78
2022-09-16T23:56:32.000Z,99481.66
2022-09-16T23:59:00.763Z,99486.56
